Saturday, November 18, 2017, 9:35 PM GMT
Back to Local

CYZV, Sept-Iles, Que.

Location: , , Canada Lat: 50.217
Local Time: 9:35 PM GMT (21:35 GMT) Lon: -66.267
Time Zone: GMT Elev: 180 ft

Show me the last for .
Show Decoded

2017-11-18 21:00 METAR CYZV 182100Z 32003KT 30SM FEW030 SCT110 BKN220 M01/M04 A2971 RMK SC2AC1CI4
                 SLP067 =
2017-11-18 20:00 METAR CYZV 182000Z 34003KT 30SM SCT030 BKN110 BKN220 01/M03 A2972 RMK SC4AC1CI2
                 SLP069 =
2017-11-18 19:00 METAR CYZV 181900Z 01006KT 320V020 30SM SCT025 SCT050 BKN220 02/M03 A2972 RMK
                 SC4SC1CI2 SC TR SLP068 =
2017-11-18 18:00 METAR CYZV 181800Z 36008KT 300V010 30SM BKN027 BKN120 BKN250 02/M03 A2971 RMK
                 SC5AC1CI1 CI TR SLP067 =
2017-11-18 17:00 METAR CYZV 181700Z 35004KT 290V030 30SM BKN025 BKN050 BKN220 02/M04 A2973 RMK
                 SC5SC1CI1 SC TR SLP071 =
2017-11-18 16:00 METAR CYZV 181600Z 01005KT 330V030 30SM FEW020 FEW050 FEW220 02/M04 A2973 RMK
                 CF1SC1CI1 SC TR SLP071 =
2017-11-18 15:00 METAR CYZV 181500Z 01007KT 290V030 30SM FEW050 FEW120 FEW250 01/M04 A2973 RMK
                 CU1AC1CI1 CU TR AC TR SLP072 =
2017-11-18 14:00 METAR CYZV 181400Z 30007KT 30SM FEW050 FEW120 FEW250 M00/M05 A2972 RMK CU1AC1CI1
                 CU TR AC TR CI TR SLP069 =
2017-11-18 13:00 METAR CYZV 181300Z 33003KT 260V350 30SM FEW050 FEW110 FEW220 M03/M06 A2972 RMK
                 SC1AC1CI1 SC TR AC TR CI TR SLP070 =
2017-11-18 12:00 METAR CYZV 181200Z 26004KT 30SM FEW050 FEW110 M05/M07 A2972 RMK SC1AC1 AC TR
                 SLP070 =
2017-11-18 11:00 METAR CYZV 181100Z 31009KT 15SM FEW050 FEW110 M04/M07 A2969 RMK SC1AC1 SC TR
                 SLP058 =
2017-11-18 10:00 METAR CYZV 181000Z 33008KT 15SM FEW050 M03/M07 A2967 RMK SC1 SC TR SLP053 =
2017-11-18 09:00 METAR CYZV 180900Z 36011G20KT 15SM SCT050 M02/M07 A2965 RMK SC4 SLP045 =
2017-11-18 08:00 METAR CYZV 180800Z 35012G18KT 15SM BKN050 M03/M07 A2964 RMK SC5 SLP042 =
2017-11-18 07:00 METAR CYZV 180700Z 35011G18KT 15SM BKN050 M02/M07 A2965 RMK SC6 SLP046 =
2017-11-18 06:00 METAR CYZV 180600Z 35009G19KT 15SM OVC050 M02/M06 A2963 RMK SC8 SLP038 =
2017-11-18 05:00 METAR CYZV 180500Z 35010G18KT 15SM OVC045 M02/M06 A2961 RMK SC8 SLP032 =
2017-11-18 04:42 METAR CYZV 180442Z 35011G19KT 15SM -SHSN BKN030 OVC050 M02/M07 A2961 RMK SC6SC2
                 SLP031 =
2017-11-18 04:00 METAR CYZV 180400Z 34010G18KT 15SM BKN050 OVC160 M03/M07 A2959 RMK SC5AC3 SLP026
                 =
2017-11-18 03:00 METAR CYZV 180300Z 36014G24KT 15SM FEW040 OVC075 M02/M07 A2957 RMK SC2AC6 SLP017
                 =
2017-11-18 02:46 METAR CYZV 180246Z 01016G21KT 15SM OVC055 M02/M06 A2956 RMK SC8 SLP016 =
2017-11-18 02:00 METAR CYZV 180200Z 36015G27KT 10SM -SHSN OVC050 M02/M06 A2957 RMK SC8 SLP019 =
2017-11-18 01:34 METAR CYZV 180134Z 01016G22KT 10SM -SHSN OVC040 M02/M06 A2957 RMK SC8 SLP017 =
2017-11-18 01:00 METAR CYZV 180100Z 36012G24KT 10SM BKN030 OVC090 M02/M05 A2957 RMK SC7AC1 PRESRR
                 SLP019 =
2017-11-18 00:45 METAR CYZV 180045Z 01015G29KT 7SM BKN020 OVC090 M02/M05 A2956 RMK SC6AC2 SLP014
                 =
2017-11-18 00:00 METAR CYZV 180000Z 36014G22KT 7SM -SN OVC025 M01/M04 A2957 RMK SC8 -SN INTMT
                 SLP019 =
2017-11-17 23:49 METAR CYZV 172349Z 36013G23KT 7SM -SN OVC020 M01/M04 A2957 RMK SC8 -SN INTMT
                 SLP018 =
2017-11-17 23:40 METAR CYZV 172340Z 36011G18KT 10SM OVC020 M01/M04 A2957 RMK SC8 SLP019 =
2017-11-17 23:00 METAR CYZV 172300Z 34012G22KT 5SM -SN BKN015 OVC025 M00/M03 A2956 RMK SN2SC4SC2
                 SLP016 =
2017-11-17 22:00 METAR CYZV 172200Z CCA 34010KT 5SM -SN OVC017 01/M01 A2958 RMK SN2SC6 SLP020 =

Support USWX by starting your Amazon purchase here.